createdAt,value
2018-12-10T00:01:20.137Z,7.50
2018-12-10T00:03:48.837Z,7.40
2018-12-10T00:06:17.288Z,7.20
2018-12-10T00:08:46.081Z,7.30
2018-12-10T00:11:15.069Z,7.40
2018-12-10T00:13:44.118Z,7.40
2018-12-10T00:16:13.999Z,7.40
2018-12-10T00:18:42.487Z,7.60
2018-12-10T00:21:11.232Z,7.60
2018-12-10T00:23:39.735Z,7.60
2018-12-10T00:26:08.289Z,7.60
2018-12-10T00:28:37.882Z,7.60
2018-12-10T00:31:07.523Z,7.60
2018-12-10T00:33:37.054Z,7.30
2018-12-10T00:36:05.496Z,7.30
2018-12-10T00:38:33.940Z,7.00
2018-12-10T00:41:02.929Z,7.10
2018-12-10T00:43:31.469Z,7.10
2018-12-10T00:46:00.372Z,6.80
2018-12-10T00:48:28.880Z,6.80
2018-12-10T00:50:57.300Z,6.70
2018-12-10T00:53:25.901Z,6.70
2018-12-10T00:55:54.393Z,6.80
2018-12-10T00:58:22.940Z,6.80
2018-12-10T01:00:51.446Z,6.80
2018-12-10T01:03:20.090Z,6.60
2018-12-10T01:05:48.723Z,6.80
2018-12-10T01:08:17.173Z,6.70
2018-12-10T01:10:45.678Z,6.80
2018-12-10T01:13:14.103Z,6.90
2018-12-10T01:15:42.586Z,7.10
2018-12-10T01:18:11.220Z,6.90
2018-12-10T01:20:40.298Z,7.10
2018-12-10T01:23:09.283Z,6.90
2018-12-10T01:25:37.714Z,7.00
2018-12-10T01:28:06.166Z,6.80
2018-12-10T01:30:34.850Z,6.70
2018-12-10T01:33:03.458Z,6.80
2018-12-10T01:35:32.698Z,6.90
2018-12-10T01:38:01.156Z,6.80
2018-12-10T01:40:29.586Z,6.60
2018-12-10T01:42:58.026Z,6.80
2018-12-10T01:45:26.556Z,7.00
2018-12-10T01:47:55.120Z,7.00
2018-12-10T01:50:25.083Z,7.00
2018-12-10T01:52:53.644Z,7.10
2018-12-10T01:55:22.688Z,7.10
2018-12-10T01:57:51.238Z,7.10
2018-12-10T02:00:20.016Z,7.00
2018-12-10T02:02:48.651Z,7.10
2018-12-10T02:05:17.146Z,7.10
2018-12-10T02:07:45.602Z,7.10
2018-12-10T02:10:14.056Z,7.30
2018-12-10T02:12:42.478Z,7.00
2018-12-10T02:15:11.044Z,7.10
2018-12-10T02:17:39.724Z,7.10
2018-12-10T02:20:08.208Z,7.00
2018-12-10T02:22:36.880Z,7.10
2018-12-10T02:25:05.454Z,7.00
2018-12-10T02:27:34.172Z,7.10
2018-12-10T02:30:02.633Z,6.80
2018-12-10T02:32:31.365Z,6.90
2018-12-10T02:34:59.802Z,7.00
2018-12-10T02:37:28.260Z,7.10
2018-12-10T02:39:56.726Z,7.10
2018-12-10T02:42:25.652Z,7.30
2018-12-10T02:44:54.121Z,7.10
2018-12-10T02:47:22.741Z,7.30
2018-12-10T02:49:51.180Z,7.30
2018-12-10T02:52:19.621Z,7.00
2018-12-10T02:54:48.051Z,7.10
2018-12-10T02:57:16.518Z,7.10
2018-12-10T02:59:44.959Z,7.00
2018-12-10T03:02:13.518Z,6.90
2018-12-10T03:04:42.221Z,7.10
2018-12-10T03:07:10.890Z,6.80
2018-12-10T03:09:39.308Z,6.90
2018-12-10T03:12:07.739Z,7.10
2018-12-10T03:14:36.159Z,7.10
2018-12-10T03:17:04.607Z,7.30
2018-12-10T03:19:33.301Z,7.30
2018-12-10T03:22:01.740Z,7.40
2018-12-10T03:24:31.062Z,7.40
2018-12-10T03:26:59.605Z,7.60
2018-12-10T03:29:28.048Z,7.70
2018-12-10T03:31:56.699Z,7.60
2018-12-10T03:34:25.149Z,7.40
2018-12-10T03:36:53.551Z,7.40
2018-12-10T03:39:22.124Z,7.30
2018-12-10T03:41:50.782Z,7.60
2018-12-10T03:44:19.267Z,7.30
2018-12-10T03:46:47.660Z,7.60
2018-12-10T03:49:16.122Z,7.60
2018-12-10T03:51:44.695Z,7.60
2018-12-10T03:54:13.410Z,7.50
2018-12-10T03:56:42.018Z,7.70
2018-12-10T03:59:11.166Z,7.80
2018-12-10T04:01:39.735Z,7.70
2018-12-10T04:04:08.295Z,7.70
2018-12-10T04:06:36.741Z,7.90
2018-12-10T04:09:07.134Z,7.80
2018-12-10T04:11:35.886Z,7.70
2018-12-10T04:14:04.316Z,7.70
2018-12-10T04:16:32.894Z,7.70
2018-12-10T04:19:01.457Z,7.90
2018-12-10T04:21:30.028Z,7.60
2018-12-10T04:23:58.752Z,7.70
2018-12-10T04:26:27.221Z,7.60
2018-12-10T04:28:55.679Z,7.60
2018-12-10T04:31:24.161Z,7.50
2018-12-10T04:33:52.632Z,7.60
2018-12-10T04:36:21.050Z,7.60
2018-12-10T04:38:50.162Z,7.60
2018-12-10T04:41:18.729Z,7.50
2018-12-10T04:43:47.571Z,7.60
2018-12-10T04:46:15.999Z,7.40
2018-12-10T04:48:44.457Z,7.40
2018-12-10T04:51:12.893Z,7.30
2018-12-10T04:53:41.322Z,7.70
2018-12-10T04:56:09.740Z,7.90
2018-12-10T04:58:38.196Z,7.80
2018-12-10T05:01:06.711Z,7.60
2018-12-10T05:03:35.126Z,7.50
2018-12-10T05:06:03.550Z,7.40
2018-12-10T05:08:32.022Z,7.60
2018-12-10T05:11:00.456Z,7.60
2018-12-10T05:13:28.918Z,7.50
2018-12-10T05:15:57.374Z,7.60
2018-12-10T05:18:25.806Z,7.60
2018-12-10T05:20:54.222Z,7.50
2018-12-10T05:23:22.978Z,7.90
2018-12-10T05:25:51.854Z,7.60
2018-12-10T05:28:20.334Z,7.60
2018-12-10T05:30:48.781Z,7.60
2018-12-10T05:33:17.286Z,7.60
2018-12-10T05:35:45.737Z,7.60
2018-12-10T05:38:14.165Z,7.70
2018-12-10T05:40:42.584Z,7.40
2018-12-10T05:43:10.981Z,7.20
2018-12-10T05:45:39.495Z,7.30
2018-12-10T05:48:07.957Z,7.30
2018-12-10T05:50:36.413Z,7.10
2018-12-10T05:53:05.101Z,7.30
2018-12-10T05:55:33.577Z,7.30
2018-12-10T05:58:02.009Z,7.30
2018-12-10T06:00:30.585Z,7.30
2018-12-10T06:02:59.098Z,7.30
2018-12-10T06:05:27.595Z,7.30
2018-12-10T06:07:56.338Z,7.20
2018-12-10T06:10:24.797Z,7.60
2018-12-10T06:12:53.257Z,7.60
2018-12-10T06:15:21.727Z,7.70
2018-12-10T06:17:50.201Z,7.60
2018-12-10T06:20:18.629Z,7.60
2018-12-10T06:22:47.260Z,7.60
2018-12-10T06:25:16.119Z,7.70
2018-12-10T06:27:44.559Z,7.60
2018-12-10T06:30:15.395Z,7.60
2018-12-10T06:32:44.461Z,7.60
2018-12-10T06:35:13.125Z,7.60
2018-12-10T06:37:41.810Z,7.60
2018-12-10T06:40:10.298Z,7.60
2018-12-10T06:42:38.846Z,7.60
2018-12-10T06:45:07.451Z,7.60
2018-12-10T06:47:36.078Z,7.60
2018-12-10T06:50:05.193Z,7.60
2018-12-10T06:52:33.671Z,7.40
2018-12-10T06:55:02.340Z,7.20
2018-12-10T06:57:31.401Z,7.30
2018-12-10T07:00:00.153Z,7.30
2018-12-10T07:02:29.077Z,7.40
2018-12-10T07:04:57.556Z,7.20
2018-12-10T07:07:26.027Z,7.20
2018-12-10T07:09:55.157Z,7.30
2018-12-10T07:12:23.720Z,7.40
2018-12-10T07:14:52.940Z,7.10
2018-12-10T07:17:21.618Z,7.60
2018-12-10T07:19:51.663Z,7.60
2018-12-10T07:22:20.123Z,7.40
2018-12-10T07:24:48.528Z,7.20
2018-12-10T07:27:17.171Z,7.40
2018-12-10T07:29:45.762Z,7.20
2018-12-10T07:32:14.222Z,7.50
2018-12-10T07:34:42.634Z,7.20
2018-12-10T07:37:11.085Z,7.20
2018-12-10T07:39:39.653Z,7.30
2018-12-10T07:42:08.123Z,7.60
2018-12-10T07:44:36.552Z,7.30
2018-12-10T07:47:05.058Z,7.20
2018-12-10T07:49:33.773Z,7.20
2018-12-10T07:52:03.953Z,7.30
2018-12-10T07:57:23.260Z,7.30
2018-12-10T07:59:51.933Z,7.30
2018-12-10T08:02:20.850Z,7.10
2018-12-10T08:04:49.413Z,7.10
2018-12-10T08:07:17.898Z,7.30
2018-12-10T08:09:46.350Z,7.30
2018-12-10T08:12:14.869Z,7.00
2018-12-10T08:14:44.007Z,7.30
2018-12-10T08:17:12.657Z,7.40
2018-12-10T08:19:41.731Z,7.20
2018-12-10T08:22:10.352Z,7.20
2018-12-10T08:24:38.935Z,7.30
2018-12-10T08:27:09.631Z,7.40
2018-12-10T08:29:38.501Z,7.20
2018-12-10T08:33:37.351Z,7.30
2018-12-10T08:36:05.823Z,7.60
2018-12-10T08:38:34.854Z,7.60
2018-12-10T08:41:03.414Z,7.40
2018-12-10T08:43:31.836Z,7.50
2018-12-10T08:46:00.337Z,7.90
2018-12-10T08:48:28.798Z,8.10
2018-12-10T08:50:57.353Z,8.30
2018-12-10T08:53:26.088Z,8.80
2018-12-10T08:55:54.776Z,9.20
2018-12-10T08:58:23.218Z,9.10
2018-12-10T09:00:51.877Z,9.30
2018-12-10T09:03:20.284Z,9.20
2018-12-10T09:05:48.749Z,9.70
2018-12-10T09:08:17.379Z,9.80
2018-12-10T09:10:45.889Z,9.70
2018-12-10T09:13:14.487Z,9.80
2018-12-10T09:15:43.379Z,10.00
2018-12-10T09:18:12.115Z,9.70
2018-12-10T09:20:40.936Z,9.50
2018-12-10T09:23:10.596Z,9.40
2018-12-10T09:25:40.389Z,9.20
2018-12-10T09:28:09.993Z,9.20
2018-12-10T09:30:38.444Z,9.00
2018-12-10T09:33:06.922Z,9.00
2018-12-10T09:35:36.507Z,9.20
2018-12-10T09:38:04.935Z,8.90
2018-12-10T09:40:33.390Z,8.90
2018-12-10T09:43:02.554Z,9.10
2018-12-10T09:45:31.255Z,9.10
2018-12-10T09:47:59.736Z,8.80
2018-12-10T09:50:29.357Z,9.10
2018-12-10T09:52:57.829Z,8.80
2018-12-10T09:55:26.595Z,9.10
2018-12-10T09:57:56.676Z,8.80
2018-12-10T10:00:25.584Z,9.20
2018-12-10T10:02:55.087Z,9.20
2018-12-10T10:05:24.056Z,9.20
2018-12-10T10:07:52.518Z,9.20
2018-12-10T10:11:50.261Z,9.10
2018-12-10T10:14:19.187Z,9.10
2018-12-10T10:16:48.452Z,9.10
2018-12-10T10:19:17.239Z,9.10
2018-12-10T10:21:46.006Z,9.20
2018-12-10T10:24:15.157Z,9.10
2018-12-10T10:26:43.602Z,9.10
2018-12-10T10:29:12.017Z,9.10
2018-12-10T10:31:40.653Z,9.20
2018-12-10T10:34:09.223Z,9.60
2018-12-10T10:36:37.668Z,9.60
2018-12-10T10:39:07.539Z,9.80
2018-12-10T10:41:35.979Z,9.90
2018-12-10T10:44:04.556Z,10.40
2018-12-10T10:46:33.405Z,10.30
2018-12-10T10:49:02.017Z,10.30
2018-12-10T10:51:30.649Z,10.40
2018-12-10T10:53:59.397Z,10.50
2018-12-10T10:56:28.262Z,10.40
2018-12-10T10:58:56.835Z,10.50
2018-12-10T11:01:30.677Z,10.40
2018-12-10T11:03:59.413Z,10.20
2018-12-10T11:06:27.986Z,10.00
2018-12-10T11:08:56.469Z,9.90
2018-12-10T11:11:24.915Z,9.80
2018-12-10T11:13:53.653Z,9.50
2018-12-10T11:16:22.231Z,9.40
2018-12-10T11:18:50.767Z,9.30
2018-12-10T11:21:19.411Z,9.30
2018-12-10T11:23:47.975Z,9.30
2018-12-10T11:26:16.650Z,9.40
2018-12-10T11:28:46.163Z,9.30
2018-12-10T11:31:17.246Z,9.50
2018-12-10T11:33:47.384Z,9.40
2018-12-10T11:36:15.842Z,9.40
2018-12-10T11:38:45.506Z,9.30
2018-12-10T11:41:13.967Z,9.20
2018-12-10T11:43:42.657Z,9.30
2018-12-10T11:46:11.207Z,9.20
2018-12-10T11:48:39.735Z,9.00
2018-12-10T11:51:08.179Z,9.10
2018-12-10T11:53:36.672Z,8.90
2018-12-10T11:56:05.150Z,9.10
2018-12-10T11:58:33.567Z,9.10
2018-12-10T12:01:02.033Z,8.90
2018-12-10T12:03:30.608Z,8.90
2018-12-10T12:05:59.091Z,8.90
2018-12-10T12:08:27.894Z,8.90
2018-12-10T12:10:56.359Z,8.80
2018-12-10T12:13:24.816Z,9.10
2018-12-10T12:15:53.764Z,9.20
2018-12-10T12:18:22.182Z,9.30
2018-12-10T12:20:50.686Z,9.30
2018-12-10T12:23:19.194Z,9.50
2018-12-10T12:25:47.674Z,9.60
2018-12-10T12:28:16.122Z,9.60
2018-12-10T12:30:44.715Z,9.60
2018-12-10T12:33:13.198Z,9.50
2018-12-10T12:35:42.114Z,9.50
2018-12-10T12:38:10.580Z,9.50
2018-12-10T12:40:40.066Z,9.40
2018-12-10T12:43:15.830Z,9.40
2018-12-10T12:45:39.018Z,9.20
2018-12-10T12:48:07.470Z,9.20
2018-12-10T12:50:35.947Z,9.00
2018-12-10T12:53:04.630Z,8.90
2018-12-10T12:55:33.591Z,8.80
2018-12-10T12:58:02.020Z,8.90
2018-12-10T13:00:30.494Z,8.80
2018-12-10T13:02:58.976Z,8.80
2018-12-10T13:05:27.661Z,8.90
2018-12-10T13:07:56.123Z,8.80
2018-12-10T13:10:24.587Z,8.90
2018-12-10T13:12:53.058Z,8.80
2018-12-10T13:15:23.561Z,9.00
2018-12-10T13:17:52.013Z,8.90
2018-12-10T13:20:20.497Z,8.90
2018-12-10T13:22:49.217Z,8.80
2018-12-10T13:25:17.665Z,8.90
2018-12-10T13:27:46.119Z,8.70
2018-12-10T13:30:14.887Z,8.70
2018-12-10T13:32:43.297Z,8.60
2018-12-10T13:35:11.838Z,8.70
2018-12-10T13:37:45.599Z,8.50
2018-12-10T13:40:11.560Z,8.40
2018-12-10T13:42:40.158Z,8.50
2018-12-10T13:45:08.796Z,8.20
2018-12-10T13:47:37.301Z,8.30
2018-12-10T13:50:06.322Z,8.20
2018-12-10T13:52:35.619Z,8.20
2018-12-10T13:55:04.239Z,8.10
2018-12-10T13:57:32.893Z,8.10
2018-12-10T14:00:01.328Z,8.00
2018-12-10T14:02:30.372Z,8.20
2018-12-10T14:05:03.553Z,8.00
2018-12-10T14:07:32.260Z,7.90
2018-12-10T14:10:00.720Z,7.90
2018-12-10T14:12:29.896Z,7.90
2018-12-10T14:14:58.448Z,7.70
2018-12-10T14:17:28.431Z,7.70
2018-12-10T14:19:57.079Z,7.50
2018-12-10T14:22:25.544Z,7.80
2018-12-10T14:24:54.289Z,7.50
2018-12-10T14:27:23.773Z,7.60
2018-12-10T14:29:53.004Z,7.30
2018-12-10T14:32:21.554Z,7.40
2018-12-10T14:34:50.100Z,7.50
2018-12-10T14:37:18.705Z,7.60
2018-12-10T14:39:47.350Z,7.40
2018-12-10T14:42:24.333Z,7.30
2018-12-10T14:44:53.067Z,7.30
2018-12-10T14:47:21.660Z,7.40
2018-12-10T14:49:50.090Z,7.50
2018-12-10T14:52:18.582Z,7.70
2018-12-10T14:54:47.089Z,7.50
2018-12-10T14:57:15.630Z,7.70
2018-12-10T14:59:44.096Z,7.60
2018-12-10T15:02:12.572Z,7.70
2018-12-10T15:04:41.019Z,7.50
2018-12-10T15:07:09.745Z,7.60
2018-12-10T15:09:38.205Z,7.50
2018-12-10T15:12:07.833Z,7.70
2018-12-10T15:14:36.309Z,7.60
2018-12-10T15:17:05.055Z,7.70
2018-12-10T15:19:33.627Z,7.70
2018-12-10T15:22:02.575Z,7.80
2018-12-10T15:24:31.069Z,7.90
2018-12-10T15:26:59.560Z,7.80
2018-12-10T15:29:28.040Z,7.90
2018-12-10T15:32:04.892Z,7.80
2018-12-10T15:34:35.142Z,7.90
2018-12-10T15:37:03.649Z,7.50
2018-12-10T15:39:32.278Z,7.60
2018-12-10T15:42:01.251Z,7.60
2018-12-10T15:44:30.073Z,7.50
2018-12-10T15:46:58.571Z,7.40
2018-12-10T15:49:27.048Z,7.40
2018-12-10T15:51:55.508Z,7.60
2018-12-10T15:54:25.784Z,7.60
2018-12-10T15:56:54.462Z,7.70
2018-12-10T15:59:22.966Z,7.60
2018-12-10T16:01:51.436Z,7.50
2018-12-10T16:04:19.900Z,7.50
2018-12-10T16:06:50.695Z,7.70
2018-12-10T16:09:19.281Z,7.50
2018-12-10T16:11:47.828Z,7.70
2018-12-10T16:14:19.702Z,7.60
2018-12-10T16:16:49.561Z,7.40
2018-12-10T16:19:27.576Z,7.20
2018-12-10T16:21:57.505Z,7.30
2018-12-10T16:24:36.027Z,7.60
2018-12-10T16:27:16.509Z,7.40
2018-12-10T16:29:45.597Z,7.20
2018-12-10T16:32:20.189Z,7.30
2018-12-10T16:34:51.672Z,7.30
2018-12-10T16:37:21.015Z,7.30
2018-12-10T16:39:51.241Z,7.10
2018-12-10T16:42:19.774Z,7.10
2018-12-10T16:44:53.150Z,7.30
2018-12-10T16:47:21.793Z,6.90
2018-12-10T16:49:51.484Z,7.00
2018-12-10T16:52:21.044Z,7.10
2018-12-10T16:54:51.488Z,6.90
2018-12-10T16:57:22.128Z,7.00
2018-12-10T16:59:53.545Z,7.10
2018-12-10T17:02:23.064Z,7.00
2018-12-10T17:05:02.974Z,6.80
2018-12-10T17:07:31.761Z,6.70
2018-12-10T17:10:00.241Z,6.60
2018-12-10T17:12:31.001Z,6.40
2018-12-10T17:15:00.768Z,6.40
2018-12-10T17:17:31.329Z,6.30
2018-12-10T17:20:00.025Z,6.50
2018-12-10T17:22:33.698Z,6.20
2018-12-10T17:25:04.123Z,6.10
2018-12-10T17:27:32.907Z,6.10
2018-12-10T17:30:01.729Z,6.10
2018-12-10T17:32:30.254Z,6.30
2018-12-10T17:34:58.869Z,6.00
2018-12-10T17:37:27.474Z,6.10
2018-12-10T17:39:56.231Z,6.10
2018-12-10T17:42:25.256Z,6.10
2018-12-10T17:44:53.715Z,6.20
2018-12-10T17:47:22.785Z,6.00
2018-12-10T17:49:54.673Z,6.00
2018-12-10T17:52:24.978Z,6.30
2018-12-10T17:54:58.663Z,6.00
2018-12-10T17:57:32.577Z,6.10
2018-12-10T18:00:13.567Z,6.00
2018-12-10T18:02:56.744Z,6.00
2018-12-10T18:05:27.846Z,5.80
2018-12-10T18:07:59.191Z,5.80
2018-12-10T18:10:28.446Z,6.00
2018-12-10T18:12:56.951Z,5.80
2018-12-10T18:15:25.485Z,6.00
2018-12-10T18:17:54.278Z,5.80
2018-12-10T18:20:23.527Z,6.00
2018-12-10T18:22:54.712Z,5.80
2018-12-10T18:25:23.310Z,5.80
2018-12-10T18:27:51.834Z,5.70
2018-12-10T18:30:23.475Z,5.70
2018-12-10T18:32:53.483Z,5.90
2018-12-10T18:35:27.673Z,6.00
2018-12-10T18:37:58.125Z,5.70
2018-12-10T18:40:28.817Z,5.90
2018-12-10T18:42:57.625Z,5.70
2018-12-10T18:45:26.865Z,5.70
2018-12-10T18:47:55.944Z,5.70
2018-12-10T18:50:24.466Z,5.70
2018-12-10T18:52:53.016Z,5.60
2018-12-10T18:55:21.520Z,5.50
2018-12-10T18:57:50.194Z,5.90
2018-12-10T19:00:18.941Z,5.60
2018-12-10T19:02:47.964Z,5.40
2018-12-10T19:05:16.465Z,5.50
2018-12-10T19:07:44.984Z,5.70
2018-12-10T19:10:14.924Z,5.60
2018-12-10T19:12:44.495Z,5.30
2018-12-10T19:15:13.595Z,5.20
2018-12-10T19:17:42.115Z,5.40
2018-12-10T19:20:13.713Z,5.30
2018-12-10T19:22:41.997Z,5.20
2018-12-10T19:25:10.435Z,5.20
2018-12-10T19:27:43.405Z,5.40
2018-12-10T19:30:11.868Z,5.20
2018-12-10T19:32:40.334Z,5.40
2018-12-10T19:35:09.174Z,5.10
2018-12-10T19:37:37.669Z,5.00
2018-12-10T19:40:07.608Z,5.00
2018-12-10T19:42:36.101Z,5.00
2018-12-10T19:45:05.556Z,5.00
2018-12-10T19:47:34.025Z,4.90
2018-12-10T19:50:02.526Z,4.90
2018-12-10T19:52:31.239Z,5.10
2018-12-10T19:54:59.667Z,5.00
2018-12-10T19:57:28.130Z,5.00
2018-12-10T19:59:57.094Z,4.90
2018-12-10T20:02:25.873Z,5.00
2018-12-10T20:04:54.362Z,4.90
2018-12-10T20:07:22.956Z,5.20
2018-12-10T20:09:51.984Z,5.00
2018-12-10T20:12:20.710Z,4.90
2018-12-10T20:14:50.030Z,4.90
2018-12-10T20:17:18.803Z,5.00
2018-12-10T20:19:47.412Z,5.00
2018-12-10T20:22:15.872Z,5.10
2018-12-10T20:24:44.475Z,5.00
2018-12-10T20:27:13.545Z,4.70
2018-12-10T20:29:42.234Z,4.70
2018-12-10T20:32:10.861Z,4.90
2018-12-10T20:34:39.384Z,4.70
2018-12-10T20:37:08.218Z,4.70
2018-12-10T20:39:36.948Z,4.70
2018-12-10T20:42:07.016Z,4.90
2018-12-10T20:44:35.498Z,4.70
2018-12-10T20:47:04.202Z,4.90
2018-12-10T20:49:32.704Z,4.40
2018-12-10T20:52:01.289Z,4.50
2018-12-10T20:54:29.888Z,4.70
2018-12-10T20:56:58.437Z,4.60
2018-12-10T20:59:27.397Z,4.50
2018-12-10T21:01:55.928Z,4.60
2018-12-10T21:04:24.377Z,4.50
2018-12-10T21:06:52.874Z,4.70
2018-12-10T21:09:21.698Z,4.60
2018-12-10T21:11:50.231Z,4.50
2018-12-10T21:14:18.711Z,4.50
2018-12-10T21:16:47.251Z,4.40
2018-12-10T21:19:16.711Z,4.30
2018-12-10T21:21:45.924Z,4.40
2018-12-10T21:24:14.933Z,4.20
2018-12-10T21:26:43.556Z,4.20
2018-12-10T21:29:12.546Z,4.20
2018-12-10T21:31:41.034Z,4.50
2018-12-10T21:34:09.519Z,4.70
2018-12-10T21:36:38.019Z,4.80
2018-12-10T21:39:07.744Z,4.70
2018-12-10T21:41:36.355Z,4.60
2018-12-10T21:44:05.235Z,4.50
2018-12-10T21:46:33.674Z,4.50
2018-12-10T21:49:02.127Z,4.50
2018-12-10T21:57:41.656Z,4.00
2018-12-10T22:00:14.196Z,3.90
2018-12-10T22:02:48.621Z,3.80
2018-12-10T22:05:22.673Z,3.70
2018-12-10T22:07:55.242Z,3.80
2018-12-10T22:10:29.870Z,4.00
2018-12-10T22:13:04.723Z,3.70
2018-12-10T22:15:38.775Z,3.80
2018-12-10T22:18:13.842Z,3.80
2018-12-10T22:20:48.855Z,3.70
2018-12-10T22:23:23.750Z,3.80
2018-12-10T22:25:57.786Z,3.90
2018-12-10T22:28:31.854Z,3.90
2018-12-10T22:31:03.659Z,4.10
2018-12-10T22:33:35.892Z,4.00
2018-12-10T22:36:10.305Z,4.00
2018-12-10T22:38:42.062Z,4.20
2018-12-10T22:41:14.256Z,4.00
2018-12-10T22:52:56.909Z,4.00
2018-12-10T22:55:29.212Z,3.90
2018-12-10T22:58:03.475Z,4.20
2018-12-10T23:00:42.495Z,3.80
2018-12-10T23:03:16.455Z,3.80
2018-12-10T23:05:48.168Z,3.60
2018-12-10T23:08:22.561Z,3.60
2018-12-10T23:10:56.515Z,3.90
2018-12-10T23:13:28.156Z,4.20
2018-12-10T23:16:02.622Z,4.00
2018-12-10T23:18:36.803Z,3.90
2018-12-10T23:21:09.283Z,3.80
2018-12-10T23:23:43.833Z,3.40
2018-12-10T23:26:18.735Z,3.40
2018-12-10T23:28:50.366Z,3.50
2018-12-10T23:31:24.805Z,3.50
2018-12-10T23:33:58.839Z,3.30
2018-12-10T23:36:32.798Z,3.30
2018-12-10T23:39:06.820Z,3.20
2018-12-10T23:41:40.864Z,3.30
2018-12-10T23:44:29.274Z,3.20
2018-12-10T23:47:03.236Z,3.30
2018-12-10T23:49:37.620Z,3.40
2018-12-10T23:52:11.810Z,3.50
2018-12-10T23:54:46.638Z,3.30
2018-12-10T23:57:19.145Z,3.50
2018-12-10T23:59:53.476Z,3.40
